sensor_id;sensor_type;location;lat;lon;timestamp;P1;durP1;ratioP1;P2;durP2;ratioP2
68484;SDS011;55472;50.060;21.960;2023-06-14T00:01:57;10.10;;;4.88;;
68484;SDS011;55472;50.060;21.960;2023-06-14T00:04:23;8.93;;;4.87;;
68484;SDS011;55472;50.060;21.960;2023-06-14T00:06:50;11.93;;;5.15;;
68484;SDS011;55472;50.060;21.960;2023-06-14T00:09:17;9.15;;;5.03;;
68484;SDS011;55472;50.060;21.960;2023-06-14T00:11:44;10.60;;;4.85;;
68484;SDS011;55472;50.060;21.960;2023-06-14T00:14:10;9.68;;;5.20;;
68484;SDS011;55472;50.060;21.960;2023-06-14T00:16:36;11.03;;;5.70;;
68484;SDS011;55472;50.060;21.960;2023-06-14T00:19:04;11.82;;;5.38;;
68484;SDS011;55472;50.060;21.960;2023-06-14T00:21:31;11.32;;;5.60;;
68484;SDS011;55472;50.060;21.960;2023-06-14T00:23:57;13.82;;;5.95;;
68484;SDS011;55472;50.060;21.960;2023-06-14T00:26:25;9.52;;;5.47;;
68484;SDS011;55472;50.060;21.960;2023-06-14T00:28:51;10.47;;;5.13;;
68484;SDS011;55472;50.060;21.960;2023-06-14T00:31:19;10.18;;;5.05;;
68484;SDS011;55472;50.060;21.960;2023-06-14T00:33:45;17.40;;;5.80;;
68484;SDS011;55472;50.060;21.960;2023-06-14T00:36:11;10.00;;;5.45;;
68484;SDS011;55472;50.060;21.960;2023-06-14T00:38:38;11.38;;;5.13;;
68484;SDS011;55472;50.060;21.960;2023-06-14T00:41:04;9.37;;;4.97;;
68484;SDS011;55472;50.060;21.960;2023-06-14T00:43:30;9.15;;;4.72;;
68484;SDS011;55472;50.060;21.960;2023-06-14T00:45:57;9.50;;;5.18;;
68484;SDS011;55472;50.060;21.960;2023-06-14T00:48:23;10.23;;;5.28;;
68484;SDS011;55472;50.060;21.960;2023-06-14T00:50:50;9.57;;;5.18;;
68484;SDS011;55472;50.060;21.960;2023-06-14T00:53:18;12.53;;;5.13;;
68484;SDS011;55472;50.060;21.960;2023-06-14T00:55:46;11.70;;;5.53;;
68484;SDS011;55472;50.060;21.960;2023-06-14T00:58:12;11.90;;;5.15;;
68484;SDS011;55472;50.060;21.960;2023-06-14T01:03:05;9.47;;;5.30;;
68484;SDS011;55472;50.060;21.960;2023-06-14T01:05:32;12.90;;;5.00;;
68484;SDS011;55472;50.060;21.960;2023-06-14T01:13:38;11.33;;;5.50;;
68484;SDS011;55472;50.060;21.960;2023-06-14T01:16:08;11.48;;;5.40;;
68484;SDS011;55472;50.060;21.960;2023-06-14T01:18:35;9.55;;;5.20;;
68484;SDS011;55472;50.060;21.960;2023-06-14T01:21:02;13.43;;;5.20;;
68484;SDS011;55472;50.060;21.960;2023-06-14T01:23:31;18.63;;;5.82;;
68484;SDS011;55472;50.060;21.960;2023-06-14T01:25:59;10.97;;;5.23;;
68484;SDS011;55472;50.060;21.960;2023-06-14T01:28:28;9.90;;;4.95;;
68484;SDS011;55472;50.060;21.960;2023-06-14T01:30:59;11.32;;;5.30;;
68484;SDS011;55472;50.060;21.960;2023-06-14T01:33:31;10.90;;;5.20;;
68484;SDS011;55472;50.060;21.960;2023-06-14T01:35:59;10.70;;;4.93;;
68484;SDS011;55472;50.060;21.960;2023-06-14T01:38:27;11.87;;;5.57;;
68484;SDS011;55472;50.060;21.960;2023-06-14T01:40:55;9.80;;;5.30;;
68484;SDS011;55472;50.060;21.960;2023-06-14T01:43:23;10.65;;;5.05;;
68484;SDS011;55472;50.060;21.960;2023-06-14T01:45:50;9.40;;;4.97;;
68484;SDS011;55472;50.060;21.960;2023-06-14T01:48:19;9.98;;;5.20;;
68484;SDS011;55472;50.060;21.960;2023-06-14T01:50:46;8.47;;;5.23;;
68484;SDS011;55472;50.060;21.960;2023-06-14T01:53:15;12.77;;;5.07;;
68484;SDS011;55472;50.060;21.960;2023-06-14T01:55:41;10.05;;;4.95;;
68484;SDS011;55472;50.060;21.960;2023-06-14T01:58:09;9.63;;;5.05;;
68484;SDS011;55472;50.060;21.960;2023-06-14T02:00:36;10.52;;;5.00;;
68484;SDS011;55472;50.060;21.960;2023-06-14T02:03:02;9.93;;;5.07;;
68484;SDS011;55472;50.060;21.960;2023-06-14T02:05:31;13.23;;;5.40;;
68484;SDS011;55472;50.060;21.960;2023-06-14T02:07:57;9.15;;;5.00;;
68484;SDS011;55472;50.060;21.960;2023-06-14T02:10:24;9.40;;;5.03;;
68484;SDS011;55472;50.060;21.960;2023-06-14T02:12:50;10.65;;;5.43;;
68484;SDS011;55472;50.060;21.960;2023-06-14T02:15:16;12.97;;;5.17;;
68484;SDS011;55472;50.060;21.960;2023-06-14T02:17:43;13.02;;;5.32;;
68484;SDS011;55472;50.060;21.960;2023-06-14T02:20:10;12.05;;;5.55;;
68484;SDS011;55472;50.060;21.960;2023-06-14T02:22:37;11.27;;;5.70;;
68484;SDS011;55472;50.060;21.960;2023-06-14T02:25:03;14.55;;;6.18;;
68484;SDS011;55472;50.060;21.960;2023-06-14T02:27:29;10.50;;;5.43;;
68484;SDS011;55472;50.060;21.960;2023-06-14T02:29:56;12.15;;;5.70;;
68484;SDS011;55472;50.060;21.960;2023-06-14T02:32:22;10.48;;;5.88;;
68484;SDS011;55472;50.060;21.960;2023-06-14T02:34:48;10.27;;;5.45;;
68484;SDS011;55472;50.060;21.960;2023-06-14T02:37:15;12.60;;;5.40;;
68484;SDS011;55472;50.060;21.960;2023-06-14T02:39:42;10.03;;;5.03;;
68484;SDS011;55472;50.060;21.960;2023-06-14T02:42:08;10.93;;;5.50;;
68484;SDS011;55472;50.060;21.960;2023-06-14T02:44:34;9.88;;;5.45;;
68484;SDS011;55472;50.060;21.960;2023-06-14T02:47:01;10.50;;;5.45;;
68484;SDS011;55472;50.060;21.960;2023-06-14T02:49:27;13.05;;;5.93;;
68484;SDS011;55472;50.060;21.960;2023-06-14T02:51:53;9.73;;;5.70;;
68484;SDS011;55472;50.060;21.960;2023-06-14T02:54:19;11.10;;;6.00;;
68484;SDS011;55472;50.060;21.960;2023-06-14T02:56:45;11.57;;;5.50;;
68484;SDS011;55472;50.060;21.960;2023-06-14T02:59:11;10.57;;;5.57;;
68484;SDS011;55472;50.060;21.960;2023-06-14T03:01:39;12.10;;;5.68;;
68484;SDS011;55472;50.060;21.960;2023-06-14T03:04:07;11.57;;;5.97;;
68484;SDS011;55472;50.060;21.960;2023-06-14T03:06:33;10.93;;;5.82;;
68484;SDS011;55472;50.060;21.960;2023-06-14T03:09:00;13.20;;;5.40;;
68484;SDS011;55472;50.060;21.960;2023-06-14T03:11:29;13.00;;;5.75;;
68484;SDS011;55472;50.060;21.960;2023-06-14T03:13:56;12.18;;;6.18;;
68484;SDS011;55472;50.060;21.960;2023-06-14T03:16:23;12.70;;;5.70;;
68484;SDS011;55472;50.060;21.960;2023-06-14T03:18:52;10.85;;;5.97;;
68484;SDS011;55472;50.060;21.960;2023-06-14T03:21:19;13.07;;;5.88;;
68484;SDS011;55472;50.060;21.960;2023-06-14T03:23:48;10.77;;;5.60;;
68484;SDS011;55472;50.060;21.960;2023-06-14T03:26:14;15.43;;;5.70;;
68484;SDS011;55472;50.060;21.960;2023-06-14T03:28:46;11.80;;;6.10;;
68484;SDS011;55472;50.060;21.960;2023-06-14T03:31:14;11.18;;;5.50;;
68484;SDS011;55472;50.060;21.960;2023-06-14T03:33:41;13.70;;;6.03;;
68484;SDS011;55472;50.060;21.960;2023-06-14T03:36:08;9.27;;;5.57;;
68484;SDS011;55472;50.060;21.960;2023-06-14T03:38:34;11.70;;;5.45;;
68484;SDS011;55472;50.060;21.960;2023-06-14T03:41:00;9.90;;;5.60;;
68484;SDS011;55472;50.060;21.960;2023-06-14T03:43:27;10.45;;;5.43;;
68484;SDS011;55472;50.060;21.960;2023-06-14T03:45:53;11.55;;;5.50;;
68484;SDS011;55472;50.060;21.960;2023-06-14T03:48:19;12.27;;;5.40;;
68484;SDS011;55472;50.060;21.960;2023-06-14T03:50:45;10.07;;;5.55;;
68484;SDS011;55472;50.060;21.960;2023-06-14T03:53:12;13.23;;;5.33;;
68484;SDS011;55472;50.060;21.960;2023-06-14T03:55:38;11.32;;;4.90;;
68484;SDS011;55472;50.060;21.960;2023-06-14T03:58:05;11.98;;;5.13;;
68484;SDS011;55472;50.060;21.960;2023-06-14T04:00:31;11.45;;;5.15;;
68484;SDS011;55472;50.060;21.960;2023-06-14T04:02:58;9.30;;;5.03;;
68484;SDS011;55472;50.060;21.960;2023-06-14T04:05:24;9.43;;;5.07;;
68484;SDS011;55472;50.060;21.960;2023-06-14T04:07:52;8.43;;;5.07;;
68484;SDS011;55472;50.060;21.960;2023-06-14T04:10:21;10.60;;;5.00;;
68484;SDS011;55472;50.060;21.960;2023-06-14T04:12:48;10.40;;;5.10;;
68484;SDS011;55472;50.060;21.960;2023-06-14T04:15:14;8.63;;;5.10;;
68484;SDS011;55472;50.060;21.960;2023-06-14T04:17:40;10.63;;;5.00;;
68484;SDS011;55472;50.060;21.960;2023-06-14T04:20:06;10.85;;;5.53;;
68484;SDS011;55472;50.060;21.960;2023-06-14T04:22:35;13.77;;;5.93;;
68484;SDS011;55472;50.060;21.960;2023-06-14T04:25:01;13.00;;;5.57;;
68484;SDS011;55472;50.060;21.960;2023-06-14T04:27:29;13.80;;;5.80;;
68484;SDS011;55472;50.060;21.960;2023-06-14T04:29:56;9.60;;;5.47;;
68484;SDS011;55472;50.060;21.960;2023-06-14T04:32:24;12.82;;;5.75;;
68484;SDS011;55472;50.060;21.960;2023-06-14T04:34:55;13.82;;;5.85;;
68484;SDS011;55472;50.060;21.960;2023-06-14T04:37:23;10.68;;;5.88;;
68484;SDS011;55472;50.060;21.960;2023-06-14T04:39:49;11.35;;;6.25;;
68484;SDS011;55472;50.060;21.960;2023-06-14T04:42:17;15.33;;;6.33;;
68484;SDS011;55472;50.060;21.960;2023-06-14T04:44:46;13.68;;;5.85;;
68484;SDS011;55472;50.060;21.960;2023-06-14T04:47:12;12.50;;;6.50;;
68484;SDS011;55472;50.060;21.960;2023-06-14T04:49:39;12.43;;;6.10;;
68484;SDS011;55472;50.060;21.960;2023-06-14T04:52:06;14.57;;;6.55;;
68484;SDS011;55472;50.060;21.960;2023-06-14T04:54:40;15.80;;;6.63;;
68484;SDS011;55472;50.060;21.960;2023-06-14T04:57:10;14.05;;;6.75;;
68484;SDS011;55472;50.060;21.960;2023-06-14T04:59:40;24.05;;;11.63;;
68484;SDS011;55472;50.060;21.960;2023-06-14T05:02:06;25.55;;;11.50;;
68484;SDS011;55472;50.060;21.960;2023-06-14T05:04:34;18.65;;;7.95;;
68484;SDS011;55472;50.060;21.960;2023-06-14T05:07:08;16.53;;;7.70;;
68484;SDS011;55472;50.060;21.960;2023-06-14T05:09:35;14.65;;;7.28;;
68484;SDS011;55472;50.060;21.960;2023-06-14T05:12:02;15.32;;;6.70;;
68484;SDS011;55472;50.060;21.960;2023-06-14T05:14:29;15.50;;;7.50;;
68484;SDS011;55472;50.060;21.960;2023-06-14T05:16:55;17.63;;;6.95;;
68484;SDS011;55472;50.060;21.960;2023-06-14T05:19:22;14.53;;;7.40;;
68484;SDS011;55472;50.060;21.960;2023-06-14T05:21:48;12.68;;;7.10;;
68484;SDS011;55472;50.060;21.960;2023-06-14T05:24:14;20.25;;;10.27;;
68484;SDS011;55472;50.060;21.960;2023-06-14T05:26:43;21.17;;;9.52;;
68484;SDS011;55472;50.060;21.960;2023-06-14T05:29:09;14.93;;;7.90;;
68484;SDS011;55472;50.060;21.960;2023-06-14T05:31:35;14.37;;;7.67;;
68484;SDS011;55472;50.060;21.960;2023-06-14T05:34:02;14.82;;;7.72;;
68484;SDS011;55472;50.060;21.960;2023-06-14T05:36:28;15.57;;;7.57;;
68484;SDS011;55472;50.060;21.960;2023-06-14T05:38:54;17.50;;;8.52;;
68484;SDS011;55472;50.060;21.960;2023-06-14T05:41:25;14.52;;;8.35;;
68484;SDS011;55472;50.060;21.960;2023-06-14T05:43:53;15.33;;;8.50;;
68484;SDS011;55472;50.060;21.960;2023-06-14T05:46:21;15.73;;;8.70;;
68484;SDS011;55472;50.060;21.960;2023-06-14T05:48:50;17.27;;;9.20;;
68484;SDS011;55472;50.060;21.960;2023-06-14T05:51:20;14.23;;;8.52;;
68484;SDS011;55472;50.060;21.960;2023-06-14T05:53:47;17.17;;;9.15;;
68484;SDS011;55472;50.060;21.960;2023-06-14T05:56:14;16.57;;;8.90;;
68484;SDS011;55472;50.060;21.960;2023-06-14T05:58:43;16.23;;;8.48;;
68484;SDS011;55472;50.060;21.960;2023-06-14T06:01:11;15.32;;;8.13;;
68484;SDS011;55472;50.060;21.960;2023-06-14T06:03:38;17.00;;;8.40;;
68484;SDS011;55472;50.060;21.960;2023-06-14T06:06:05;28.92;;;15.88;;
68484;SDS011;55472;50.060;21.960;2023-06-14T06:08:31;13.73;;;8.67;;
68484;SDS011;55472;50.060;21.960;2023-06-14T06:10:58;13.40;;;8.52;;
68484;SDS011;55472;50.060;21.960;2023-06-14T06:13:25;14.07;;;8.82;;
68484;SDS011;55472;50.060;21.960;2023-06-14T06:15:52;14.52;;;9.00;;
68484;SDS011;55472;50.060;21.960;2023-06-14T06:18:18;16.57;;;9.00;;
68484;SDS011;55472;50.060;21.960;2023-06-14T06:20:44;14.25;;;8.52;;
68484;SDS011;55472;50.060;21.960;2023-06-14T06:23:12;16.73;;;8.52;;
68484;SDS011;55472;50.060;21.960;2023-06-14T06:25:38;14.90;;;8.38;;
68484;SDS011;55472;50.060;21.960;2023-06-14T06:28:05;14.52;;;8.25;;
68484;SDS011;55472;50.060;21.960;2023-06-14T06:30:31;20.17;;;9.13;;
68484;SDS011;55472;50.060;21.960;2023-06-14T06:32:57;16.33;;;9.27;;
68484;SDS011;55472;50.060;21.960;2023-06-14T06:35:24;16.30;;;9.52;;
68484;SDS011;55472;50.060;21.960;2023-06-14T06:37:50;17.27;;;9.43;;
68484;SDS011;55472;50.060;21.960;2023-06-14T06:40:17;17.58;;;9.10;;
68484;SDS011;55472;50.060;21.960;2023-06-14T06:42:43;16.37;;;9.43;;
68484;SDS011;55472;50.060;21.960;2023-06-14T06:45:09;15.27;;;9.70;;
68484;SDS011;55472;50.060;21.960;2023-06-14T06:47:36;15.75;;;9.35;;
68484;SDS011;55472;50.060;21.960;2023-06-14T06:50:02;17.08;;;10.15;;
68484;SDS011;55472;50.060;21.960;2023-06-14T06:52:28;18.70;;;10.73;;
68484;SDS011;55472;50.060;21.960;2023-06-14T06:54:54;17.85;;;10.18;;
68484;SDS011;55472;50.060;21.960;2023-06-14T06:57:21;20.60;;;10.30;;
68484;SDS011;55472;50.060;21.960;2023-06-14T06:59:48;19.60;;;9.75;;
68484;SDS011;55472;50.060;21.960;2023-06-14T07:02:15;17.77;;;10.43;;
68484;SDS011;55472;50.060;21.960;2023-06-14T07:04:42;19.33;;;10.13;;
68484;SDS011;55472;50.060;21.960;2023-06-14T07:07:08;17.77;;;9.32;;
68484;SDS011;55472;50.060;21.960;2023-06-14T07:09:36;15.48;;;8.98;;
68484;SDS011;55472;50.060;21.960;2023-06-14T07:12:03;17.70;;;9.80;;
68484;SDS011;55472;50.060;21.960;2023-06-14T07:14:30;14.88;;;9.13;;
68484;SDS011;55472;50.060;21.960;2023-06-14T07:16:56;15.77;;;8.90;;
68484;SDS011;55472;50.060;21.960;2023-06-14T07:19:22;17.10;;;9.05;;
68484;SDS011;55472;50.060;21.960;2023-06-14T07:21:48;14.70;;;8.48;;
68484;SDS011;55472;50.060;21.960;2023-06-14T07:24:14;16.05;;;8.57;;
68484;SDS011;55472;50.060;21.960;2023-06-14T07:26:40;14.43;;;9.18;;
68484;SDS011;55472;50.060;21.960;2023-06-14T07:29:06;15.23;;;8.83;;
68484;SDS011;55472;50.060;21.960;2023-06-14T07:31:33;18.55;;;8.77;;
68484;SDS011;55472;50.060;21.960;2023-06-14T07:33:59;15.45;;;8.60;;
68484;SDS011;55472;50.060;21.960;2023-06-14T07:36:25;13.20;;;8.23;;
68484;SDS011;55472;50.060;21.960;2023-06-14T07:38:51;13.95;;;8.18;;
68484;SDS011;55472;50.060;21.960;2023-06-14T07:41:17;12.13;;;7.20;;
68484;SDS011;55472;50.060;21.960;2023-06-14T07:43:43;12.63;;;7.68;;
68484;SDS011;55472;50.060;21.960;2023-06-14T07:46:10;13.32;;;8.20;;
68484;SDS011;55472;50.060;21.960;2023-06-14T07:48:36;13.25;;;8.30;;
68484;SDS011;55472;50.060;21.960;2023-06-14T07:51:02;13.30;;;7.88;;
68484;SDS011;55472;50.060;21.960;2023-06-14T07:53:29;14.60;;;8.17;;
68484;SDS011;55472;50.060;21.960;2023-06-14T07:55:56;13.15;;;8.52;;
68484;SDS011;55472;50.060;21.960;2023-06-14T07:58:22;15.68;;;8.98;;
68484;SDS011;55472;50.060;21.960;2023-06-14T08:00:48;13.73;;;8.38;;
68484;SDS011;55472;50.060;21.960;2023-06-14T08:03:15;14.15;;;8.20;;
68484;SDS011;55472;50.060;21.960;2023-06-14T08:05:41;16.47;;;8.67;;
68484;SDS011;55472;50.060;21.960;2023-06-14T08:08:07;17.38;;;8.10;;
68484;SDS011;55472;50.060;21.960;2023-06-14T08:10:33;14.90;;;8.75;;
68484;SDS011;55472;50.060;21.960;2023-06-14T08:12:59;12.68;;;8.02;;
68484;SDS011;55472;50.060;21.960;2023-06-14T08:15:26;12.82;;;7.88;;
68484;SDS011;55472;50.060;21.960;2023-06-14T08:17:52;13.90;;;7.90;;
68484;SDS011;55472;50.060;21.960;2023-06-14T08:20:18;14.88;;;7.90;;
68484;SDS011;55472;50.060;21.960;2023-06-14T08:22:45;15.85;;;8.55;;
68484;SDS011;55472;50.060;21.960;2023-06-14T08:25:13;13.45;;;7.57;;
68484;SDS011;55472;50.060;21.960;2023-06-14T08:27:40;13.52;;;8.45;;
68484;SDS011;55472;50.060;21.960;2023-06-14T08:30:07;14.53;;;8.20;;
68484;SDS011;55472;50.060;21.960;2023-06-14T08:32:33;12.73;;;8.02;;
68484;SDS011;55472;50.060;21.960;2023-06-14T08:35:00;11.95;;;7.75;;
68484;SDS011;55472;50.060;21.960;2023-06-14T08:37:26;12.15;;;7.70;;
68484;SDS011;55472;50.060;21.960;2023-06-14T08:39:52;15.45;;;8.07;;
68484;SDS011;55472;50.060;21.960;2023-06-14T08:42:18;14.80;;;7.97;;
68484;SDS011;55472;50.060;21.960;2023-06-14T08:44:48;13.35;;;8.43;;
68484;SDS011;55472;50.060;21.960;2023-06-14T08:47:15;14.85;;;8.10;;
68484;SDS011;55472;50.060;21.960;2023-06-14T08:49:45;14.15;;;7.93;;
68484;SDS011;55472;50.060;21.960;2023-06-14T08:52:12;13.65;;;8.40;;
68484;SDS011;55472;50.060;21.960;2023-06-14T08:54:44;13.40;;;7.87;;
68484;SDS011;55472;50.060;21.960;2023-06-14T08:57:14;13.95;;;7.45;;
68484;SDS011;55472;50.060;21.960;2023-06-14T08:59:45;14.15;;;7.43;;
68484;SDS011;55472;50.060;21.960;2023-06-14T09:02:17;13.20;;;8.18;;
68484;SDS011;55472;50.060;21.960;2023-06-14T09:04:47;13.38;;;8.35;;
68484;SDS011;55472;50.060;21.960;2023-06-14T09:07:14;14.23;;;8.53;;
68484;SDS011;55472;50.060;21.960;2023-06-14T09:09:41;16.42;;;8.65;;
68484;SDS011;55472;50.060;21.960;2023-06-14T09:12:10;14.27;;;8.60;;
68484;SDS011;55472;50.060;21.960;2023-06-14T09:14:38;17.90;;;8.95;;
68484;SDS011;55472;50.060;21.960;2023-06-14T09:17:06;17.05;;;8.75;;
68484;SDS011;55472;50.060;21.960;2023-06-14T09:19:33;16.40;;;8.73;;
68484;SDS011;55472;50.060;21.960;2023-06-14T09:22:02;16.75;;;9.80;;
68484;SDS011;55472;50.060;21.960;2023-06-14T09:24:30;16.92;;;9.38;;
68484;SDS011;55472;50.060;21.960;2023-06-14T09:26:56;15.25;;;9.15;;
68484;SDS011;55472;50.060;21.960;2023-06-14T09:29:23;13.68;;;8.38;;
68484;SDS011;55472;50.060;21.960;2023-06-14T09:31:49;17.23;;;8.83;;
68484;SDS011;55472;50.060;21.960;2023-06-14T09:34:16;13.98;;;7.78;;
68484;SDS011;55472;50.060;21.960;2023-06-14T09:36:44;18.33;;;8.43;;
68484;SDS011;55472;50.060;21.960;2023-06-14T09:39:11;13.68;;;7.47;;
68484;SDS011;55472;50.060;21.960;2023-06-14T09:41:43;12.13;;;6.75;;
68484;SDS011;55472;50.060;21.960;2023-06-14T09:44:10;11.90;;;6.93;;
68484;SDS011;55472;50.060;21.960;2023-06-14T09:46:37;14.75;;;7.28;;
68484;SDS011;55472;50.060;21.960;2023-06-14T09:49:04;11.82;;;6.93;;
68484;SDS011;55472;50.060;21.960;2023-06-14T09:51:31;10.68;;;6.65;;
68484;SDS011;55472;50.060;21.960;2023-06-14T09:54:01;12.40;;;7.47;;
68484;SDS011;55472;50.060;21.960;2023-06-14T09:56:38;11.60;;;7.27;;
68484;SDS011;55472;50.060;21.960;2023-06-14T09:59:12;11.55;;;7.05;;
68484;SDS011;55472;50.060;21.960;2023-06-14T10:01:41;10.88;;;7.05;;
68484;SDS011;55472;50.060;21.960;2023-06-14T10:04:09;12.73;;;6.50;;
68484;SDS011;55472;50.060;21.960;2023-06-14T10:06:36;12.27;;;7.05;;
68484;SDS011;55472;50.060;21.960;2023-06-14T10:09:07;12.17;;;7.00;;
68484;SDS011;55472;50.060;21.960;2023-06-14T10:11:36;12.20;;;6.72;;
68484;SDS011;55472;50.060;21.960;2023-06-14T10:14:10;10.98;;;6.10;;
68484;SDS011;55472;50.060;21.960;2023-06-14T10:22:30;11.90;;;6.40;;
68484;SDS011;55472;50.060;21.960;2023-06-14T10:25:06;10.98;;;5.78;;
68484;SDS011;55472;50.060;21.960;2023-06-14T10:27:37;10.05;;;5.63;;
68484;SDS011;55472;50.060;21.960;2023-06-14T10:30:05;10.52;;;6.95;;
68484;SDS011;55472;50.060;21.960;2023-06-14T10:32:33;11.20;;;6.07;;
68484;SDS011;55472;50.060;21.960;2023-06-14T10:35:08;8.73;;;5.80;;
68484;SDS011;55472;50.060;21.960;2023-06-14T10:37:41;16.10;;;7.18;;
68484;SDS011;55472;50.060;21.960;2023-06-14T10:40:07;9.70;;;6.03;;
68484;SDS011;55472;50.060;21.960;2023-06-14T10:42:34;11.80;;;6.85;;
68484;SDS011;55472;50.060;21.960;2023-06-14T10:45:00;11.25;;;6.25;;
68484;SDS011;55472;50.060;21.960;2023-06-14T10:49:54;14.05;;;6.38;;
68484;SDS011;55472;50.060;21.960;2023-06-14T10:52:27;13.05;;;7.00;;
68484;SDS011;55472;50.060;21.960;2023-06-14T10:55:01;13.40;;;6.95;;
68484;SDS011;55472;50.060;21.960;2023-06-14T11:00:21;11.77;;;6.23;;
68484;SDS011;55472;50.060;21.960;2023-06-14T11:05:55;13.90;;;6.60;;
68484;SDS011;55472;50.060;21.960;2023-06-14T11:11:33;13.43;;;7.25;;
68484;SDS011;55472;50.060;21.960;2023-06-14T11:14:02;14.07;;;7.87;;
68484;SDS011;55472;50.060;21.960;2023-06-14T11:16:28;11.23;;;7.57;;
68484;SDS011;55472;50.060;21.960;2023-06-14T11:18:54;15.93;;;8.45;;
68484;SDS011;55472;50.060;21.960;2023-06-14T11:21:21;14.35;;;7.75;;
68484;SDS011;55472;50.060;21.960;2023-06-14T11:23:50;11.98;;;7.53;;
68484;SDS011;55472;50.060;21.960;2023-06-14T11:26:28;14.23;;;8.47;;
68484;SDS011;55472;50.060;21.960;2023-06-14T11:28:56;12.00;;;7.38;;
68484;SDS011;55472;50.060;21.960;2023-06-14T11:31:24;12.45;;;8.32;;
68484;SDS011;55472;50.060;21.960;2023-06-14T11:33:55;13.98;;;8.98;;
68484;SDS011;55472;50.060;21.960;2023-06-14T11:36:26;14.27;;;7.75;;
68484;SDS011;55472;50.060;21.960;2023-06-14T11:38:58;11.63;;;8.10;;
68484;SDS011;55472;50.060;21.960;2023-06-14T11:41:38;14.82;;;8.48;;
68484;SDS011;55472;50.060;21.960;2023-06-14T11:44:07;11.18;;;7.38;;
68484;SDS011;55472;50.060;21.960;2023-06-14T11:46:34;13.05;;;8.07;;
68484;SDS011;55472;50.060;21.960;2023-06-14T11:49:01;11.93;;;7.90;;
68484;SDS011;55472;50.060;21.960;2023-06-14T11:51:33;13.07;;;6.57;;
68484;SDS011;55472;50.060;21.960;2023-06-14T11:54:01;10.00;;;6.88;;
68484;SDS011;55472;50.060;21.960;2023-06-14T11:56:29;11.77;;;7.75;;
68484;SDS011;55472;50.060;21.960;2023-06-14T11:58:57;11.88;;;7.43;;
68484;SDS011;55472;50.060;21.960;2023-06-14T12:01:23;11.18;;;7.68;;
68484;SDS011;55472;50.060;21.960;2023-06-14T12:03:51;11.63;;;7.23;;
68484;SDS011;55472;50.060;21.960;2023-06-14T12:06:27;12.55;;;7.50;;
68484;SDS011;55472;50.060;21.960;2023-06-14T12:08:58;13.40;;;8.38;;
68484;SDS011;55472;50.060;21.960;2023-06-14T12:11:34;13.05;;;8.55;;
68484;SDS011;55472;50.060;21.960;2023-06-14T12:14:02;12.55;;;7.63;;
68484;SDS011;55472;50.060;21.960;2023-06-14T12:16:32;12.10;;;8.50;;
68484;SDS011;55472;50.060;21.960;2023-06-14T12:19:09;13.00;;;8.50;;
68484;SDS011;55472;50.060;21.960;2023-06-14T12:21:39;12.77;;;8.77;;
68484;SDS011;55472;50.060;21.960;2023-06-14T12:24:07;11.63;;;9.35;;
68484;SDS011;55472;50.060;21.960;2023-06-14T12:26:37;13.82;;;8.63;;
68484;SDS011;55472;50.060;21.960;2023-06-14T12:29:06;15.40;;;9.57;;
68484;SDS011;55472;50.060;21.960;2023-06-14T12:31:33;15.05;;;9.23;;
68484;SDS011;55472;50.060;21.960;2023-06-14T12:33:59;12.65;;;8.88;;
68484;SDS011;55472;50.060;21.960;2023-06-14T12:36:26;12.02;;;8.32;;
68484;SDS011;55472;50.060;21.960;2023-06-14T12:38:52;15.23;;;8.70;;
68484;SDS011;55472;50.060;21.960;2023-06-14T12:41:21;14.93;;;8.73;;
68484;SDS011;55472;50.060;21.960;2023-06-14T12:43:47;13.80;;;9.32;;
68484;SDS011;55472;50.060;21.960;2023-06-14T12:46:14;18.08;;;9.43;;
68484;SDS011;55472;50.060;21.960;2023-06-14T12:48:40;13.60;;;8.88;;
68484;SDS011;55472;50.060;21.960;2023-06-14T12:51:06;13.10;;;8.63;;
68484;SDS011;55472;50.060;21.960;2023-06-14T12:53:32;11.43;;;8.57;;
68484;SDS011;55472;50.060;21.960;2023-06-14T12:55:58;15.20;;;8.57;;
68484;SDS011;55472;50.060;21.960;2023-06-14T12:58:24;15.18;;;8.48;;
68484;SDS011;55472;50.060;21.960;2023-06-14T13:00:51;16.10;;;9.05;;
68484;SDS011;55472;50.060;21.960;2023-06-14T13:03:17;11.88;;;7.35;;
68484;SDS011;55472;50.060;21.960;2023-06-14T13:05:44;14.07;;;8.07;;
68484;SDS011;55472;50.060;21.960;2023-06-14T13:08:10;10.90;;;7.38;;
68484;SDS011;55472;50.060;21.960;2023-06-14T13:10:37;13.18;;;8.48;;
68484;SDS011;55472;50.060;21.960;2023-06-14T13:13:03;10.73;;;7.07;;
68484;SDS011;55472;50.060;21.960;2023-06-14T13:15:29;10.73;;;6.40;;
68484;SDS011;55472;50.060;21.960;2023-06-14T13:17:55;10.53;;;6.90;;
68484;SDS011;55472;50.060;21.960;2023-06-14T13:20:22;10.80;;;6.95;;
68484;SDS011;55472;50.060;21.960;2023-06-14T13:22:48;12.27;;;7.13;;
68484;SDS011;55472;50.060;21.960;2023-06-14T13:25:15;15.70;;;7.68;;
68484;SDS011;55472;50.060;21.960;2023-06-14T13:27:41;11.07;;;7.70;;
68484;SDS011;55472;50.060;21.960;2023-06-14T13:30:08;12.77;;;8.00;;
68484;SDS011;55472;50.060;21.960;2023-06-14T13:32:35;10.00;;;7.05;;
68484;SDS011;55472;50.060;21.960;2023-06-14T13:35:01;11.07;;;7.78;;
68484;SDS011;55472;50.060;21.960;2023-06-14T13:37:29;9.10;;;7.10;;
68484;SDS011;55472;50.060;21.960;2023-06-14T13:39:55;11.85;;;7.30;;
68484;SDS011;55472;50.060;21.960;2023-06-14T13:42:21;12.30;;;6.93;;
68484;SDS011;55472;50.060;21.960;2023-06-14T13:44:47;10.68;;;6.95;;
68484;SDS011;55472;50.060;21.960;2023-06-14T13:47:13;12.57;;;6.90;;
68484;SDS011;55472;50.060;21.960;2023-06-14T13:49:40;11.98;;;6.85;;
68484;SDS011;55472;50.060;21.960;2023-06-14T13:52:06;11.37;;;6.93;;
68484;SDS011;55472;50.060;21.960;2023-06-14T13:54:33;12.63;;;7.57;;
68484;SDS011;55472;50.060;21.960;2023-06-14T13:56:59;10.57;;;7.07;;
68484;SDS011;55472;50.060;21.960;2023-06-14T13:59:25;12.05;;;6.72;;
68484;SDS011;55472;50.060;21.960;2023-06-14T14:01:51;13.18;;;7.22;;
68484;SDS011;55472;50.060;21.960;2023-06-14T14:04:17;10.37;;;7.50;;
68484;SDS011;55472;50.060;21.960;2023-06-14T14:06:43;13.90;;;7.63;;
68484;SDS011;55472;50.060;21.960;2023-06-14T14:09:11;11.60;;;7.00;;
68484;SDS011;55472;50.060;21.960;2023-06-14T14:11:37;11.65;;;7.25;;
68484;SDS011;55472;50.060;21.960;2023-06-14T14:14:05;12.57;;;7.00;;
68484;SDS011;55472;50.060;21.960;2023-06-14T14:16:31;11.13;;;7.27;;
68484;SDS011;55472;50.060;21.960;2023-06-14T14:18:57;13.13;;;7.75;;
68484;SDS011;55472;50.060;21.960;2023-06-14T14:21:24;12.00;;;7.53;;
68484;SDS011;55472;50.060;21.960;2023-06-14T14:23:50;10.00;;;6.97;;
68484;SDS011;55472;50.060;21.960;2023-06-14T14:26:16;13.18;;;7.15;;
68484;SDS011;55472;50.060;21.960;2023-06-14T14:28:43;14.33;;;7.77;;
68484;SDS011;55472;50.060;21.960;2023-06-14T14:31:09;12.18;;;6.93;;
68484;SDS011;55472;50.060;21.960;2023-06-14T14:33:35;11.00;;;6.75;;
68484;SDS011;55472;50.060;21.960;2023-06-14T14:36:01;11.57;;;6.97;;
68484;SDS011;55472;50.060;21.960;2023-06-14T14:38:29;9.65;;;6.72;;
68484;SDS011;55472;50.060;21.960;2023-06-14T14:40:55;10.63;;;6.90;;
68484;SDS011;55472;50.060;21.960;2023-06-14T14:43:21;14.90;;;7.65;;
68484;SDS011;55472;50.060;21.960;2023-06-14T14:45:47;9.77;;;6.90;;
68484;SDS011;55472;50.060;21.960;2023-06-14T14:48:14;9.65;;;6.50;;
68484;SDS011;55472;50.060;21.960;2023-06-14T14:50:40;12.40;;;7.68;;